createdAt,value
2023-06-07T00:01:01.453Z,19.08
2023-06-07T00:03:29.181Z,19.02
2023-06-07T00:05:56.822Z,19.04
2023-06-07T00:08:24.330Z,19.01
2023-06-07T00:10:51.888Z,19.08
2023-06-07T00:13:19.276Z,18.95
2023-06-07T00:15:46.732Z,18.77
2023-06-07T00:18:14.478Z,18.75
2023-06-07T00:20:42.840Z,18.71
2023-06-07T00:23:10.420Z,18.72
2023-06-07T00:25:37.916Z,18.66
2023-06-07T00:28:05.466Z,18.68
2023-06-07T00:30:33.151Z,18.74
2023-06-07T00:33:00.753Z,18.69
2023-06-07T00:35:28.301Z,18.69
2023-06-07T00:37:55.815Z,18.47
2023-06-07T00:40:23.807Z,18.55
2023-06-07T00:42:51.447Z,18.47
2023-06-07T00:45:18.986Z,18.42
2023-06-07T00:47:46.707Z,18.44
2023-06-07T00:50:15.270Z,18.38
2023-06-07T00:52:44.643Z,18.30
2023-06-07T00:55:14.515Z,18.25
2023-06-07T00:57:42.211Z,18.22
2023-06-07T01:00:10.906Z,18.17
2023-06-07T01:02:39.315Z,18.16
2023-06-07T01:05:07.148Z,18.00
2023-06-07T01:07:37.232Z,18.07
2023-06-07T01:10:07.145Z,18.21
2023-06-07T01:12:35.583Z,18.11
2023-06-07T01:15:04.053Z,18.08
2023-06-07T01:17:32.256Z,17.99
2023-06-07T01:20:01.247Z,18.03
2023-06-07T01:22:33.569Z,18.00
2023-06-07T01:25:01.208Z,18.07
2023-06-07T01:27:29.830Z,18.04
2023-06-07T01:29:59.598Z,18.06
2023-06-07T01:32:27.480Z,18.08
2023-06-07T01:34:55.738Z,18.01
2023-06-07T01:37:24.829Z,17.94
2023-06-07T01:39:54.313Z,18.02
2023-06-07T01:42:22.432Z,18.04
2023-06-07T01:44:51.608Z,17.98
2023-06-07T01:47:19.243Z,18.06
2023-06-07T01:49:49.583Z,18.02
2023-06-07T01:52:17.101Z,17.94
2023-06-07T01:54:45.212Z,17.95
2023-06-07T01:57:12.829Z,17.91
2023-06-07T01:59:57.007Z,17.95
2023-06-07T02:02:38.699Z,17.95
2023-06-07T02:05:12.955Z,17.88
2023-06-07T02:07:48.200Z,17.90
2023-06-07T02:10:19.445Z,18.06
2023-06-07T02:12:47.586Z,18.06
2023-06-07T02:15:15.198Z,17.91
2023-06-07T02:17:54.006Z,17.78
2023-06-07T02:20:21.616Z,17.85
2023-06-07T02:22:49.115Z,17.87
2023-06-07T02:25:16.840Z,17.82
2023-06-07T02:27:44.382Z,17.78
2023-06-07T02:30:12.338Z,17.85
2023-06-07T02:32:40.367Z,17.85
2023-06-07T02:35:09.118Z,17.69
2023-06-07T02:37:36.713Z,17.72
2023-06-07T02:40:06.284Z,17.72
2023-06-07T02:42:34.077Z,17.75
2023-06-07T02:45:01.601Z,17.80
2023-06-07T02:47:30.115Z,17.57
2023-06-07T02:49:58.536Z,17.65
2023-06-07T02:52:26.191Z,17.52
2023-06-07T02:54:53.691Z,17.55
2023-06-07T02:57:21.484Z,17.54
2023-06-07T02:59:48.969Z,17.56
2023-06-07T03:02:16.483Z,17.62
2023-06-07T03:04:44.036Z,17.51
2023-06-07T03:07:11.887Z,17.53
2023-06-07T03:09:40.373Z,17.52
2023-06-07T03:12:08.349Z,17.54
2023-06-07T03:14:35.821Z,17.54
2023-06-07T03:17:03.379Z,17.60
2023-06-07T03:19:31.070Z,17.61
2023-06-07T03:22:01.400Z,17.52
2023-06-07T03:24:28.914Z,17.57
2023-06-07T03:26:56.385Z,17.64
2023-06-07T03:29:24.016Z,17.75
2023-06-07T03:31:52.616Z,17.68
2023-06-07T03:34:20.209Z,17.60
2023-06-07T03:36:47.630Z,17.61
2023-06-07T03:39:15.393Z,17.57
2023-06-07T03:41:44.173Z,17.99
2023-06-07T03:44:13.389Z,18.98
2023-06-07T03:46:56.769Z,18.71
2023-06-07T03:49:24.550Z,18.96
2023-06-07T03:51:52.845Z,19.19
2023-06-07T03:54:21.633Z,19.52
2023-06-07T03:56:49.020Z,19.77
2023-06-07T03:59:16.703Z,19.89
2023-06-07T04:01:44.166Z,19.70
2023-06-07T04:04:11.770Z,19.78
2023-06-07T04:06:39.992Z,19.92
2023-06-07T04:09:07.731Z,19.58
2023-06-07T04:11:35.416Z,19.50
2023-06-07T04:14:03.252Z,19.18
2023-06-07T04:16:30.944Z,19.33
2023-06-07T04:19:01.186Z,19.12
2023-06-07T04:21:30.141Z,19.04
2023-06-07T04:23:57.981Z,18.79
2023-06-07T04:26:25.794Z,19.18
2023-06-07T04:28:54.017Z,19.31
2023-06-07T04:31:21.983Z,19.03
2023-06-07T04:33:50.306Z,19.52
2023-06-07T04:36:18.440Z,19.42
2023-06-07T04:38:57.308Z,19.45
2023-06-07T04:41:26.652Z,19.48
2023-06-07T04:43:55.591Z,19.67
2023-06-07T04:46:23.431Z,19.61
2023-06-07T04:48:51.461Z,19.57
2023-06-07T04:51:18.874Z,18.93
2023-06-07T04:53:46.550Z,18.94
2023-06-07T04:56:14.396Z,19.25
2023-06-07T04:58:41.919Z,19.57
2023-06-07T05:01:09.486Z,19.75
2023-06-07T05:03:42.961Z,19.75
2023-06-07T05:06:11.400Z,19.87
2023-06-07T05:08:39.250Z,19.79
2023-06-07T05:11:15.190Z,19.77
2023-06-07T05:13:43.789Z,19.66
2023-06-07T05:16:14.603Z,19.40
2023-06-07T05:18:42.632Z,19.51
2023-06-07T05:21:10.661Z,19.50
2023-06-07T05:23:38.975Z,19.44
2023-06-07T05:26:06.609Z,19.98
2023-06-07T05:28:34.897Z,19.88
2023-06-07T05:31:02.997Z,19.82
2023-06-07T05:33:30.757Z,20.11
2023-06-07T05:35:59.011Z,19.97
2023-06-07T05:38:26.597Z,19.70
2023-06-07T05:40:55.288Z,20.13
2023-06-07T05:43:23.781Z,20.22
2023-06-07T05:45:51.291Z,20.10
2023-06-07T05:48:18.849Z,19.63
2023-06-07T05:50:46.296Z,19.76
2023-06-07T05:53:13.831Z,20.17
2023-06-07T05:55:41.255Z,20.28
2023-06-07T05:58:09.045Z,20.17
2023-06-07T06:00:36.708Z,19.96
2023-06-07T06:03:04.387Z,19.99
2023-06-07T06:05:31.985Z,20.12
2023-06-07T06:07:59.762Z,20.21
2023-06-07T06:10:27.472Z,20.03
2023-06-07T06:12:55.249Z,20.08
2023-06-07T06:15:22.706Z,20.48
2023-06-07T06:17:50.344Z,20.48
2023-06-07T06:20:18.289Z,20.33
2023-06-07T06:22:46.143Z,20.18
2023-06-07T06:25:13.659Z,19.94
2023-06-07T06:27:41.542Z,19.95
2023-06-07T06:30:09.379Z,19.52
2023-06-07T06:32:37.026Z,19.97
2023-06-07T06:35:04.956Z,20.15
2023-06-07T06:37:32.507Z,20.13
2023-06-07T06:40:00.248Z,20.31
2023-06-07T06:42:27.685Z,20.02
2023-06-07T06:44:55.177Z,19.88
2023-06-07T06:47:22.667Z,20.18
2023-06-07T06:49:50.244Z,20.04
2023-06-07T06:52:17.602Z,20.14
2023-06-07T06:54:45.166Z,20.02
2023-06-07T06:57:12.771Z,20.15
2023-06-07T06:59:40.220Z,20.28
2023-06-07T07:02:07.880Z,20.32
2023-06-07T07:04:35.558Z,20.22
2023-06-07T07:07:03.177Z,20.05
2023-06-07T07:09:30.731Z,19.99
2023-06-07T07:11:58.437Z,19.96
2023-06-07T07:14:26.154Z,19.99
2023-06-07T07:16:54.469Z,19.92
2023-06-07T07:19:22.102Z,19.81
2023-06-07T07:21:49.458Z,20.30
2023-06-07T07:26:44.430Z,20.39
2023-06-07T07:29:11.903Z,20.30
2023-06-07T07:31:39.452Z,20.44
2023-06-07T07:34:06.930Z,20.51
2023-06-07T07:36:34.426Z,20.33
2023-06-07T07:39:02.097Z,20.12
2023-06-07T07:41:29.660Z,20.16
2023-06-07T07:43:57.134Z,19.87
2023-06-07T07:46:24.687Z,19.92
2023-06-07T07:48:52.186Z,20.07
2023-06-07T07:51:20.412Z,20.15
2023-06-07T07:53:48.043Z,20.29
2023-06-07T07:56:15.614Z,20.39
2023-06-07T07:58:46.066Z,20.36
2023-06-07T08:01:13.671Z,20.17
2023-06-07T08:03:41.135Z,19.78
2023-06-07T08:06:08.674Z,19.71
2023-06-07T08:08:36.150Z,20.18
2023-06-07T08:11:03.634Z,20.37
2023-06-07T08:13:31.201Z,20.34
2023-06-07T08:15:58.738Z,20.58
2023-06-07T08:18:26.421Z,20.63
2023-06-07T08:20:53.969Z,20.58
2023-06-07T08:23:21.341Z,20.26
2023-06-07T08:25:48.850Z,20.37
2023-06-07T08:28:16.675Z,20.19
2023-06-07T08:30:44.339Z,20.37
2023-06-07T08:33:11.800Z,20.43
2023-06-07T08:35:39.521Z,20.69
2023-06-07T08:38:06.918Z,20.54
2023-06-07T08:40:35.922Z,20.18
2023-06-07T08:43:03.582Z,20.14
2023-06-07T08:45:31.139Z,19.90
2023-06-07T08:47:58.626Z,19.92
2023-06-07T08:50:26.891Z,19.86
2023-06-07T08:53:00.836Z,19.96
2023-06-07T08:55:28.433Z,20.02
2023-06-07T08:57:56.012Z,20.04
2023-06-07T09:00:25.093Z,20.10
2023-06-07T09:02:53.597Z,20.01
2023-06-07T09:05:22.011Z,19.83
2023-06-07T09:07:50.480Z,19.72
2023-06-07T09:10:18.951Z,19.90
2023-06-07T09:12:46.938Z,19.85
2023-06-07T09:15:19.611Z,19.81
2023-06-07T09:18:05.555Z,19.85
2023-06-07T09:20:33.147Z,19.75
2023-06-07T09:23:05.183Z,19.73
2023-06-07T09:25:33.157Z,19.66
2023-06-07T09:28:03.561Z,19.62
2023-06-07T09:30:31.168Z,19.67
2023-06-07T09:32:58.932Z,19.76
2023-06-07T09:35:26.717Z,19.65
2023-06-07T09:37:54.463Z,19.72
2023-06-07T09:40:23.226Z,19.73
2023-06-07T09:43:00.597Z,19.86
2023-06-07T09:45:28.859Z,19.85
2023-06-07T09:48:07.110Z,19.84
2023-06-07T09:50:34.843Z,19.84
2023-06-07T09:53:02.333Z,19.88
2023-06-07T09:55:30.470Z,19.87
2023-06-07T09:57:57.988Z,19.88
2023-06-07T10:00:26.778Z,19.89
2023-06-07T10:03:04.432Z,19.92
2023-06-07T10:05:32.124Z,19.82
2023-06-07T10:08:00.114Z,19.84
2023-06-07T10:10:28.291Z,19.99
2023-06-07T10:12:56.997Z,20.01
2023-06-07T10:15:26.174Z,19.96
2023-06-07T10:17:56.398Z,19.94
2023-06-07T10:20:27.924Z,19.99
2023-06-07T10:23:02.426Z,20.08
2023-06-07T10:25:31.970Z,19.99
2023-06-07T10:28:36.203Z,19.87
2023-06-07T10:31:08.325Z,19.93
2023-06-07T10:33:37.034Z,19.79
2023-06-07T10:36:06.973Z,19.75
2023-06-07T10:38:35.302Z,19.63
2023-06-07T10:41:05.848Z,19.79
2023-06-07T10:43:35.010Z,19.78
2023-06-07T10:46:22.481Z,19.80
2023-06-07T10:48:54.205Z,19.79
2023-06-07T10:51:43.580Z,19.95
2023-06-07T10:54:11.040Z,19.92
2023-06-07T10:56:42.091Z,19.90
2023-06-07T10:59:15.968Z,20.01
2023-06-07T11:01:49.961Z,20.05
2023-06-07T11:04:32.919Z,20.11
2023-06-07T11:07:21.243Z,20.16
2023-06-07T11:10:09.568Z,20.14
2023-06-07T11:12:37.709Z,20.10
2023-06-07T11:15:24.895Z,20.18
2023-06-07T11:17:56.596Z,20.15
2023-06-07T11:20:39.504Z,20.11
2023-06-07T11:23:29.625Z,20.16
2023-06-07T11:26:00.913Z,20.21
2023-06-07T11:28:30.014Z,20.22
2023-06-07T11:30:57.954Z,20.27
2023-06-07T11:33:27.861Z,20.33
2023-06-07T11:35:56.198Z,21.61
2023-06-07T11:38:25.667Z,21.92
2023-06-07T11:40:53.448Z,21.90
2023-06-07T11:43:24.326Z,22.21
2023-06-07T11:45:56.944Z,22.12
2023-06-07T11:48:27.920Z,22.32
2023-06-07T11:50:59.530Z,22.39
2023-06-07T11:53:27.161Z,22.07
2023-06-07T11:55:54.809Z,22.03
2023-06-07T11:58:25.394Z,21.78
2023-06-07T12:00:53.588Z,21.85
2023-06-07T12:03:21.545Z,21.84
2023-06-07T12:05:49.488Z,21.89
2023-06-07T12:08:20.958Z,21.78
2023-06-07T12:10:56.024Z,21.76
2023-06-07T12:13:24.214Z,21.87
2023-06-07T12:15:56.010Z,21.83
2023-06-07T12:18:29.307Z,21.92
2023-06-07T12:21:03.903Z,21.89
2023-06-07T12:23:32.168Z,21.65
2023-06-07T12:26:11.051Z,21.78
2023-06-07T12:28:39.547Z,21.71
2023-06-07T12:31:22.427Z,21.84
2023-06-07T12:33:57.813Z,22.07
2023-06-07T12:36:29.687Z,22.10
2023-06-07T12:39:15.240Z,22.15
2023-06-07T12:41:42.796Z,22.31
2023-06-07T12:44:11.313Z,22.14
2023-06-07T12:46:39.080Z,22.13
2023-06-07T12:49:06.759Z,22.15
2023-06-07T12:51:35.300Z,21.91
2023-06-07T12:54:02.994Z,22.00
2023-06-07T12:56:30.776Z,21.93
2023-06-07T12:59:01.375Z,21.89
2023-06-07T13:01:30.770Z,21.83
2023-06-07T13:03:59.099Z,21.90
2023-06-07T13:06:26.635Z,22.02
2023-06-07T13:09:07.493Z,21.92
2023-06-07T13:11:36.900Z,22.03
2023-06-07T13:14:04.776Z,22.09
2023-06-07T13:16:32.962Z,22.17
2023-06-07T13:19:01.887Z,22.17
2023-06-07T13:21:30.121Z,22.32
2023-06-07T13:23:58.366Z,22.17
2023-06-07T13:26:25.941Z,22.30
2023-06-07T13:28:53.281Z,22.39
2023-06-07T13:31:20.844Z,22.41
2023-06-07T13:33:48.459Z,22.53
2023-06-07T13:36:16.022Z,22.56
2023-06-07T13:38:43.504Z,22.39
2023-06-07T13:41:11.244Z,22.49
2023-06-07T13:46:09.242Z,22.51
2023-06-07T13:48:37.722Z,22.48
2023-06-07T13:51:05.189Z,22.35
2023-06-07T13:53:32.827Z,22.47
2023-06-07T13:56:03.287Z,22.55
2023-06-07T13:58:30.858Z,22.42
2023-06-07T14:00:58.569Z,22.41
2023-06-07T14:03:26.951Z,22.51
2023-06-07T14:05:55.246Z,22.60
2023-06-07T14:08:22.884Z,22.46
2023-06-07T14:10:54.614Z,22.45
2023-06-07T14:13:22.398Z,22.41
2023-06-07T14:15:50.165Z,22.40
2023-06-07T14:18:17.694Z,22.34
2023-06-07T14:20:45.207Z,22.43
2023-06-07T14:23:12.662Z,22.40
2023-06-07T14:25:40.336Z,22.45
2023-06-07T14:28:07.749Z,22.31
2023-06-07T14:30:35.265Z,22.27
2023-06-07T14:33:02.850Z,22.18
2023-06-07T14:35:30.352Z,22.23
2023-06-07T14:37:57.792Z,22.31
2023-06-07T14:40:25.309Z,22.26
2023-06-07T14:42:52.903Z,22.33
2023-06-07T14:45:20.500Z,22.26
2023-06-07T14:47:47.951Z,22.29
2023-06-07T14:50:15.318Z,22.35
2023-06-07T14:52:42.946Z,22.34
2023-06-07T14:55:10.429Z,22.35
2023-06-07T14:57:38.345Z,22.40
2023-06-07T15:00:07.242Z,22.36
2023-06-07T15:02:34.977Z,22.28
2023-06-07T15:05:02.597Z,22.28
2023-06-07T15:07:33.986Z,22.38
2023-06-07T15:10:05.354Z,22.42
2023-06-07T15:12:39.170Z,22.45
2023-06-07T15:15:10.480Z,22.34
2023-06-07T15:17:42.118Z,22.31
2023-06-07T15:20:11.184Z,22.32
2023-06-07T15:22:44.966Z,22.39
2023-06-07T15:25:16.024Z,22.41
2023-06-07T15:27:49.404Z,22.43
2023-06-07T15:30:23.003Z,22.39
2023-06-07T15:32:53.280Z,22.42
2023-06-07T15:35:26.849Z,22.34
2023-06-07T15:37:54.743Z,22.29
2023-06-07T15:40:25.561Z,22.29
2023-06-07T15:42:57.031Z,22.37
2023-06-07T15:45:24.557Z,22.36
2023-06-07T15:47:58.194Z,22.22
2023-06-07T15:50:26.089Z,22.25
2023-06-07T15:52:56.586Z,22.25
2023-06-07T15:55:27.392Z,22.16
2023-06-07T15:57:56.309Z,22.10
2023-06-07T16:00:37.149Z,22.23
2023-06-07T16:03:06.038Z,22.23
2023-06-07T16:05:33.904Z,22.19
2023-06-07T16:08:10.505Z,22.21
2023-06-07T16:10:40.218Z,22.19
2023-06-07T16:13:07.647Z,22.31
2023-06-07T16:15:35.561Z,22.20
2023-06-07T16:18:04.914Z,22.19
2023-06-07T16:20:32.614Z,22.21
2023-06-07T16:23:00.663Z,22.31
2023-06-07T16:25:28.192Z,22.16
2023-06-07T16:27:56.197Z,22.29
2023-06-07T16:30:23.620Z,22.16
2023-06-07T16:32:54.056Z,22.16
2023-06-07T16:35:21.702Z,22.00
2023-06-07T16:37:49.119Z,22.04
2023-06-07T16:40:17.073Z,22.09
2023-06-07T16:42:44.513Z,22.23
2023-06-07T16:45:15.637Z,22.09
2023-06-07T16:47:43.255Z,22.05
2023-06-07T16:50:11.239Z,22.07
2023-06-07T16:52:38.796Z,21.95
2023-06-07T16:55:06.992Z,21.91
2023-06-07T16:57:34.443Z,21.97
2023-06-07T17:00:01.871Z,21.92
2023-06-07T17:02:29.534Z,21.85
2023-06-07T17:04:56.997Z,21.91
2023-06-07T17:07:24.704Z,21.67
2023-06-07T17:09:52.247Z,21.56
2023-06-07T17:12:20.000Z,21.67
2023-06-07T17:14:49.645Z,21.68
2023-06-07T17:17:20.488Z,21.71
2023-06-07T17:19:48.555Z,21.80
2023-06-07T17:22:19.029Z,21.92
2023-06-07T17:24:46.637Z,21.60
2023-06-07T17:27:14.178Z,21.62
2023-06-07T17:29:41.822Z,21.60
2023-06-07T17:32:09.510Z,21.64
2023-06-07T17:34:37.466Z,21.52
2023-06-07T17:37:05.331Z,21.17
2023-06-07T17:39:32.828Z,21.21
2023-06-07T17:42:00.407Z,21.20
2023-06-07T17:44:27.918Z,21.24
2023-06-07T17:46:55.710Z,21.02
2023-06-07T17:49:23.219Z,21.14
2023-06-07T17:51:50.732Z,21.30
2023-06-07T17:54:18.157Z,21.27
2023-06-07T17:56:45.637Z,21.19
2023-06-07T17:59:13.608Z,21.11
2023-06-07T18:01:41.168Z,20.94
2023-06-07T18:04:08.715Z,20.87
2023-06-07T18:06:36.241Z,20.84
2023-06-07T18:09:04.716Z,20.76
2023-06-07T18:11:32.249Z,20.80
2023-06-07T18:14:00.151Z,20.95
2023-06-07T18:16:28.094Z,20.90
2023-06-07T18:18:56.079Z,20.80
2023-06-07T18:21:23.598Z,20.86
2023-06-07T18:23:51.251Z,20.82
2023-06-07T18:26:18.890Z,20.98
2023-06-07T18:28:46.462Z,20.95
2023-06-07T18:31:14.139Z,21.08
2023-06-07T18:33:41.656Z,21.21
2023-06-07T18:36:12.204Z,21.19
2023-06-07T18:38:39.672Z,21.09
2023-06-07T18:41:07.165Z,21.22
2023-06-07T18:43:35.624Z,21.24
2023-06-07T18:46:03.556Z,21.23
2023-06-07T18:48:31.264Z,21.17
2023-06-07T18:50:58.887Z,21.31
2023-06-07T18:53:26.705Z,21.18
2023-06-07T18:55:54.400Z,21.10
2023-06-07T18:58:21.961Z,21.10
2023-06-07T19:00:49.495Z,21.05
2023-06-07T19:03:17.319Z,21.00
2023-06-07T19:05:47.811Z,21.00
2023-06-07T19:08:15.322Z,20.85
2023-06-07T19:10:43.294Z,20.92
2023-06-07T19:13:10.713Z,20.81
2023-06-07T19:15:38.273Z,20.79
2023-06-07T19:18:09.024Z,20.91
2023-06-07T19:20:37.252Z,20.80
2023-06-07T19:23:05.773Z,20.64
2023-06-07T19:25:33.838Z,20.63
2023-06-07T19:28:02.289Z,20.70
2023-06-07T19:30:29.951Z,20.59
2023-06-07T19:32:58.994Z,20.65
2023-06-07T19:35:26.857Z,20.74
2023-06-07T19:37:57.959Z,20.64
2023-06-07T19:40:26.735Z,20.71
2023-06-07T19:42:54.820Z,20.84
2023-06-07T19:45:22.391Z,20.68
2023-06-07T19:47:50.313Z,20.53
2023-06-07T19:50:18.045Z,20.37
2023-06-07T19:52:45.642Z,20.62
2023-06-07T19:55:13.181Z,20.44
2023-06-07T19:57:40.990Z,20.46
2023-06-07T20:00:10.071Z,20.38
2023-06-07T20:02:37.655Z,20.70
2023-06-07T20:05:05.491Z,20.63
2023-06-07T20:07:33.118Z,20.74
2023-06-07T20:10:01.223Z,20.66
2023-06-07T20:12:29.165Z,20.72
2023-06-07T20:14:57.839Z,20.49
2023-06-07T20:17:26.156Z,20.37
2023-06-07T20:19:54.677Z,20.39
2023-06-07T20:22:22.595Z,20.34
2023-06-07T20:24:50.261Z,20.30
2023-06-07T20:27:18.870Z,20.36
2023-06-07T20:29:46.997Z,20.42
2023-06-07T20:32:14.910Z,20.22
2023-06-07T20:34:44.857Z,19.75
2023-06-07T20:37:12.736Z,19.43
2023-06-07T20:39:40.295Z,19.29
2023-06-07T20:42:09.245Z,19.25
2023-06-07T20:44:51.998Z,19.24
2023-06-07T20:47:21.110Z,19.16
2023-06-07T20:49:48.897Z,19.20
2023-06-07T20:52:16.383Z,19.27
2023-06-07T20:54:43.916Z,19.32
2023-06-07T20:57:11.738Z,19.35
2023-06-07T20:59:46.938Z,19.22
2023-06-07T21:02:15.238Z,19.26
2023-06-07T21:04:44.861Z,19.29
2023-06-07T21:07:14.164Z,19.24
2023-06-07T21:09:42.215Z,19.28
2023-06-07T21:12:10.447Z,19.27
2023-06-07T21:14:39.894Z,19.24
2023-06-07T21:17:08.262Z,19.18
2023-06-07T21:19:35.871Z,19.12
2023-06-07T21:22:03.676Z,19.12
2023-06-07T21:24:31.988Z,19.06
2023-06-07T21:26:59.515Z,19.04
2023-06-07T21:29:26.956Z,19.00
2023-06-07T21:31:54.611Z,18.96
2023-06-07T21:34:22.245Z,18.94
2023-06-07T21:36:49.876Z,18.99
2023-06-07T21:39:17.327Z,18.99
2023-06-07T21:41:44.808Z,19.01
2023-06-07T21:44:12.363Z,18.98
2023-06-07T21:46:39.963Z,18.96
2023-06-07T21:49:07.504Z,18.97
2023-06-07T21:51:34.956Z,18.96
2023-06-07T21:54:02.722Z,18.94
2023-06-07T21:56:30.194Z,18.97
2023-06-07T21:58:57.804Z,18.93
2023-06-07T22:01:25.394Z,18.91
2023-06-07T22:03:52.954Z,18.93
2023-06-07T22:06:20.478Z,18.92
2023-06-07T22:09:06.380Z,18.87
2023-06-07T22:11:34.579Z,18.83
2023-06-07T22:14:02.104Z,18.81
2023-06-07T22:16:29.680Z,18.80
2023-06-07T22:18:57.165Z,18.77
2023-06-07T22:21:24.652Z,18.80
2023-06-07T22:23:52.210Z,18.81
2023-06-07T22:26:19.768Z,18.78
2023-06-07T22:28:47.304Z,18.78
2023-06-07T22:31:16.123Z,18.78
2023-06-07T22:33:44.800Z,18.78
2023-06-07T22:36:12.740Z,18.74
2023-06-07T22:38:40.296Z,18.72
2023-06-07T22:41:07.839Z,18.75
2023-06-07T22:43:35.201Z,18.82
2023-06-07T22:46:02.828Z,18.73
2023-06-07T22:48:30.265Z,18.63
2023-06-07T22:50:57.708Z,18.61
2023-06-07T22:53:25.257Z,18.74
2023-06-07T22:56:24.370Z,18.64
2023-06-07T22:58:52.090Z,18.66
2023-06-07T23:01:20.514Z,18.67
2023-06-07T23:03:48.866Z,18.66
2023-06-07T23:06:16.644Z,18.64
2023-06-07T23:08:44.986Z,18.66
2023-06-07T23:11:12.382Z,18.67
2023-06-07T23:13:39.837Z,18.64
2023-06-07T23:16:07.368Z,18.61
2023-06-07T23:18:34.858Z,18.63
2023-06-07T23:21:02.405Z,18.63
2023-06-07T23:23:29.935Z,18.63
2023-06-07T23:25:57.452Z,18.63
2023-06-07T23:28:24.969Z,18.64
2023-06-07T23:30:52.445Z,18.54
2023-06-07T23:33:22.961Z,18.51
2023-06-07T23:35:50.462Z,18.55
2023-06-07T23:38:17.920Z,18.52
2023-06-07T23:40:45.300Z,18.55
2023-06-07T23:43:12.886Z,18.60
2023-06-07T23:45:40.410Z,18.66
2023-06-07T23:48:07.912Z,18.58
2023-06-07T23:50:35.763Z,18.64
2023-06-07T23:53:03.089Z,18.57
2023-06-07T23:55:30.595Z,18.60
2023-06-07T23:57:58.072Z,18.56
